Upstream stations:
Downstream station:
SHEF ID: BRIO2 Canadian River at Bridgeport, OK
STATION TYPE:
Regulating: Stage = 15.00, Flow = 8545
STAGE RIV-FLOW
ft cfs
Ccp-Rev Ccp-Rev
(US/Central)
05/24 00:00 12.43 1949
05/24 01:00 12.43 1949
05/24 02:00 12.42 1936
05/24 03:00 12.42 1936
05/24 04:00 12.43 1949
05/24 05:00 12.43 1949
05/24 06:00 12.43 1949
05/24 07:00 12.42 1936
05/24 08:00 12.48 2018
05/24 09:00 10.81 547
05/24 10:00 13.09 2999
05/24 11:00 13.09 2999
05/24 12:00 13.05 2927
05/24 13:00 13.09 2999
05/24 14:00 13.10 3018
05/24 15:00 13.06 2945
05/24 16:00 12.96 2768
05/24 17:00 12.91 2682
05/24 18:00 12.89 2648
05/24 19:00 12.81 2516
05/24 20:00 12.70 2341
05/24 21:00 12.65 2265
05/24 22:00 11.07 715
05/24 23:00 ---- ----